• Join FlightAware (Why Join?)
  • Login
  • US Flag 
04:14AM EDT


 

Airport Tracker/Info


-or-


 

Live Flight TrackerFlight Track Log ✈ SWA1535 ✈ 30-Apr-2013 ✈ KOMA - KDEN

Flight Track Log - Related Links

Times and Time Zones

All times are in EDT time to prevent confusion due to time zone crossing. See the SWA1535 flight status page for this flight to view local times or setup timezone preferences in your user account.

Time Position Orientation Groundspeed Altitude Reporting Facility
EDT Latitude Longitude Course Direction KTS MPH feet Rate Location/Type
09:17PM 41.3633 -95.9756 316° Northwest 223 257 4,700  Level Minneapolis Center
09:18PM 41.4014 -96.0489 305° West 301 346 7,300 3,120 Climbing Minneapolis Center
09:19PM 41.4108 -96.0650 308° West 259 298 8,600 3,600 Climbing Minneapolis Center
09:20PM 41.4392 -96.1611 291° West 280 322 12,300 3,960 Climbing Minneapolis Center
09:21PM 41.4625 -96.2939 283° West 305 351 16,800 3,960 Climbing Minneapolis Center
09:22PM 41.4650 -96.4147 272° West 324 373 20,500 2,820 Climbing Minneapolis Center
09:23PM 41.4589 -96.5422 266° West 347 399 22,600 2,280 Climbing Minneapolis Center
09:24PM 41.4531 -96.6800 267° West 370 426 25,200 2,340 Climbing Minneapolis Center
09:25PM 41.4481 -96.8225 267° West 383 441 27,500 2,100 Climbing Minneapolis Center
09:26PM 41.4411 -96.9697 266° West 395 455 29,600 2,040 Climbing Minneapolis Center
09:27PM 41.4347 -97.1206 267° West 404 465 31,800 2,220 Climbing Minneapolis Center
09:28PM 41.4289 -97.2681 267° West 402 463 34,200 1,860 Climbing Minneapolis Center
09:29PM 41.4244 -97.3844 267° West 396 456 35,700 1,800 Climbing Minneapolis Center
09:30PM 41.4147 -97.5883 266° West 395 455 38,000 1,740 Climbing Minneapolis Center
09:31PM 41.4078 -97.7319 266° West 390 449 39,300 960 Climbing Minneapolis Center
09:32PM 41.4000 -97.8769 266° West 392 451 40,000 300 Climbing Minneapolis Center
09:33PM 41.3931 -98.0211 266° West 390 449 40,000  Level Minneapolis Center
09:34PM 41.3853 -98.1647 266° West 393 452 40,000  Level Minneapolis Center
09:35PM 41.3781 -98.3094 266° West 392 451 40,000  Level Minneapolis Center
09:36PM 41.3594 -98.4217 258° West 397 457 40,000  Level Minneapolis Center
09:37PM 41.3181 -98.5897 252° West 393 452 40,000  Level Minneapolis Center
09:38PM 41.2836 -98.7272 252° West 394 453 40,000  Level Minneapolis Center
09:39PM 41.2442 -98.8947 253° West 395 455 40,000  Level Minneapolis Center
09:40PM 41.2086 -99.0322 251° West 395 455 40,000 -180 Level Minneapolis Center
09:41PM 41.1800 -99.1581 253° West 390 449 39,700 -1,140 Descending Minneapolis Center
09:42PM 41.1553 -99.2967 257° West 387 445 37,700 -1,800 Descending Denver Center
09:43PM 41.1253 -99.4572 256° West 377 434 36,000 -840 Descending Denver Center
09:44PM 41.0989 -99.5939 256° West 372 428 36,000  Level Denver Center
09:45PM 41.0750 -99.7206 256° West 370 426 36,000  Level Denver Center
09:46PM 41.0500 -99.8497 256° West 376 433 36,000  Level Denver Center
09:47PM 41.0211 -100.0008 256° West 379 436 36,000  Level Denver Center
09:48PM 40.9958 -100.1300 256° West 379 436 36,000  Level Denver Center
09:49PM 40.9664 -100.2811 256° West 380 437 36,000  Level Denver Center
09:50PM 40.9406 -100.4103 255° West 380 437 36,000  Level Denver Center
09:51PM 40.9114 -100.5614 256° West 381 438 36,000  Level Denver Center
09:53PM 40.8869 -100.6867 256° West 377 434 36,000  Level Denver Center
09:54PM 40.8517 -100.8531 254° West 382 440 36,000  Level Denver Center
09:55PM 40.8217 -101.0011 255° West 377 434 36,000  Level Denver Center
09:56PM 40.7961 -101.1278 255° West 376 433 36,000  Level Denver Center
09:57PM 40.7614 -101.2969 255° West 375 432 36,000  Level Denver Center
09:58PM 40.7356 -101.4228 255° West 373 429 36,000  Level Denver Center
09:59PM 40.7058 -101.5669 255° West 367 422 36,000  Level Denver Center
10:00PM 40.6750 -101.7103 254° West 365 420 36,000  Level Denver Center
10:01PM 40.6456 -101.8531 255° West 363 418 36,000  Level Denver Center
10:02PM 40.6189 -101.9767 254° West 366 421 36,000  Level Denver Center
10:03PM 40.5878 -102.1203 254° West 365 420 36,000  Level Denver Center
10:04PM 40.5608 -102.2431 254° West 365 420 36,000  Level Denver Center
10:06PM 40.5353 -102.3661 255° West 364 419 36,000  Level Denver Center
10:07PM 40.4989 -102.5286 254° West 364 419 36,000  Level Denver Center
10:08PM 40.4675 -102.6708 254° West 369 425 36,000  Level Denver Center
10:09PM 40.4381 -102.7989 253° West 365 420 36,000  Level Denver Center
10:10PM 40.4100 -102.9289 254° West 366 421 36,000 -960 Level Denver Center
10:12PM 40.3528 -103.1875 254° West 364 419 33,200 -1,740 Descending Denver Center
10:13PM 40.3231 -103.3161 253° West 365 420 30,700 -2,400 Descending Denver Center
10:14PM 40.2942 -103.4428 253° West 360 414 28,300 -2,280 Descending Denver Center
10:15PM 40.2675 -103.5631 254° West 345 397 26,100 -2,160 Descending Denver Center
10:16PM 40.2408 -103.6792 253° West 332 382 23,900 -1,440 Descending Denver Center
10:18PM 40.1814 -103.8992 251° West 337 388 21,700 -1,440 Descending Denver Center
10:19PM 40.1236 -104.0189 238° Southwest 313 360 19,500 -1,860 Descending Denver Center
10:20PM 40.0858 -104.1000 239° Southwest 308 354 18,000 -1,680 Descending Denver Center
10:21PM 40.0308 -104.2181 239° Southwest 309 356 16,100 -1,620 Descending Denver Center
10:22PM 39.9875 -104.3128 239° Southwest 306 352 14,700 -1,320 Descending Denver Center
10:23PM 39.9500 -104.4000 241° Southwest 264 304 13,600 -1,260 Descending Denver TRACON
10:24PM 39.9167 -104.4833 242° Southwest 268 308 12,300 -1,200 Descending Denver TRACON
10:25PM 39.8333 -104.5000 189° South 273 314 11,300 -840 Descending Denver TRACON
10:26PM 39.7667 -104.5000 180° South 242 278 10,700 -900 Descending Denver TRACON
10:27PM 39.7167 -104.5000 180° South 238 274 9,600 -1,080 Descending Denver TRACON
10:27PM 39.6994 -104.5100 204° Southwest 230 265 9,500 -960 Descending Denver Center
10:28PM 39.6892 -104.5992 262° West 231 266 8,400 -1,020 Descending Denver Center
10:29PM 39.7244 -104.6428 316° Northwest 200 230 7,500 -900 Descending Denver Center
10:30PM 39.7722 -104.6433 359° North 172 198 6,600 -840 Descending Denver Center
10:31PM 39.8061 -104.6419 North 124 143 5,900 -660 Descending Denver Center
10:32PM 39.8433 -104.6417 360° North 122 140 5,300 -600 Descending Denver Center
10:34PM 39.8500 -104.6667 North  Level FlightAware Approximate
10:41PM 39.8617 -104.6732 North  Level Estimated
10:42PM 39.8617 -104.6732 North  Level Estimated
10:43PM 39.8617 -104.6732 North  Level Estimated